Time;durP1;ratioP1;P1;durP2;ratioP2;P2;SDS_P1;SDS_P2;PMS_P1;PMS_P2;Temp;Humidity;BMP_temperature;BMP_pressure;BME280_temperature;BME280_humidity;BME280_pressure;Samples;Min_cycle;Max_cycle;Signal;HPM_P1;HPM_P2
2023/05/06 00:01:35;;;;;;;6.57;5.97;;;;;;;15.11;100.00;155241.84;4972092;28;20466;-77
2023/05/06 00:04:03;;;;;;;6.10;5.40;;;;;;;15.08;100.00;155234.03;4986930;28;20450;-76
2023/05/06 00:06:29;;;;;;;7.73;6.07;;;;;;;15.09;100.00;155237.91;4979963;28;20871;-78
2023/05/06 00:08:56;;;;;;;5.60;5.10;;;;;;;15.04;100.00;155223.63;4989198;28;20464;-77
2023/05/06 00:11:22;;;;;;;4.73;4.33;;;;;;;15.02;100.00;155218.44;4990404;28;20492;-77
2023/05/06 00:13:49;;;;;;;4.73;4.33;;;;;;;14.97;100.00;155205.44;4977299;28;20466;-77
2023/05/06 00:16:15;;;;;;;4.83;4.37;;;;;;;14.91;100.00;155191.16;4987563;28;20499;-78
2023/05/06 00:18:42;;;;;;;4.87;4.37;;;;;;;14.88;100.00;155182.09;4990153;28;20465;-78
2023/05/06 00:21:10;;;;;;;4.30;3.90;;;;;;;14.90;100.00;155188.56;4974967;28;20459;-77
2023/05/06 00:23:36;;;;;;;4.87;4.13;;;;;;;14.89;100.00;155184.66;5004061;28;20454;-78
2023/05/06 00:26:03;;;;;;;4.30;3.90;;;;;;;14.88;100.00;155182.09;4983618;28;20814;-78
2023/05/06 00:28:30;;;;;;;4.50;4.03;;;;;;;14.84;100.00;155172.97;4987680;28;20439;-78
2023/05/06 00:30:56;;;;;;;3.90;3.50;;;;;;;14.86;100.00;155178.16;5006045;28;20484;-78
2023/05/06 00:33:23;;;;;;;3.40;3.10;;;;;;;14.87;100.00;155180.78;4981329;28;20460;-78
2023/05/06 00:35:50;;;;;;;3.93;3.63;;;;;;;14.86;100.00;155176.84;4987088;28;20462;-77
2023/05/06 00:38:18;;;;;;;4.20;3.80;;;;;;;14.81;100.00;155163.88;4972773;28;20457;-77
2023/05/06 00:40:45;;;;;;;3.40;3.10;;;;;;;14.74;100.00;155145.69;4987374;28;20440;-78
2023/05/06 00:43:12;;;;;;;4.00;3.40;;;;;;;14.72;100.00;155140.50;4996635;28;20464;-78
2023/05/06 00:45:39;;;;;;;4.40;4.00;;;;;;;14.77;100.00;155153.50;4972264;28;20448;-78
2023/05/06 00:48:06;;;;;;;4.60;3.60;;;;;;;14.74;100.00;155145.69;4971091;28;20537;-77
2023/05/06 00:50:34;;;;;;;3.50;3.00;;;;;;;14.71;100.00;155137.91;4973732;28;20975;-78
2023/05/06 00:53:03;;;;;;;3.60;3.30;;;;;;;14.60;100.00;155110.63;4993338;28;20456;-77
2023/05/06 00:55:32;;;;;;;4.07;3.77;;;;;;;14.59;100.00;155108.00;4984779;28;20513;-78
2023/05/06 00:57:59;;;;;;;3.60;3.10;;;;;;;14.57;100.00;155104.13;5004646;28;20488;-77
2023/05/06 01:00:26;;;;;;;3.37;2.90;;;;;;;14.55;100.00;155098.94;4966223;28;21009;-77
2023/05/06 01:02:52;;;;;;;4.53;3.43;;;;;;;14.52;100.00;155091.16;4970210;28;20471;-78
2023/05/06 01:05:21;;;;;;;3.60;3.30;;;;;;;14.52;100.00;155091.16;4997485;28;21016;-78
2023/05/06 01:07:57;;;;;;;3.57;3.17;;;;;;;14.57;100.00;155102.81;4973318;28;20902;-77
2023/05/06 01:10:28;;;;;;;4.00;3.60;;;;;;;14.60;100.00;155110.63;5011454;28;21075;-77
2023/05/06 01:13:04;;;;;;;4.40;3.70;;;;;;;14.57;100.00;155104.13;4973518;28;20446;-77
2023/05/06 01:15:34;;;;;;;3.40;3.10;;;;;;;14.50;100.00;155085.97;4984450;28;20461;-77
2023/05/06 01:18:04;;;;;;;3.87;3.47;;;;;;;14.43;100.00;155066.44;4999436;28;20464;-77
2023/05/06 01:20:33;;;;;;;3.30;3.00;;;;;;;14.46;100.00;155075.53;5005200;28;20430;-77
2023/05/06 01:23:01;;;;;;;3.83;3.53;;;;;;;14.47;100.00;155078.16;4960690;28;20450;-77
2023/05/06 01:25:32;;;;;;;4.03;3.67;;;;;;;14.45;100.00;155072.97;4980429;28;20561;-77
2023/05/06 01:27:59;;;;;;;3.40;3.10;;;;;;;14.39;100.00;155057.38;5007542;28;20532;-77
2023/05/06 01:30:29;;;;;;;5.10;3.83;;;;;;;14.35;100.00;155045.72;4996969;28;20478;-77
2023/05/06 01:33:00;;;;;;;5.37;3.00;;;;;;;14.34;100.00;155043.09;4970338;28;20455;-77
2023/05/06 01:35:34;;;;;;;3.40;3.10;;;;;;;14.32;100.00;155039.16;4984819;28;20454;-77
2023/05/06 01:38:06;;;;;;;3.63;3.33;;;;;;;14.33;100.00;155041.78;5004868;28;20445;-77
2023/05/06 01:40:35;;;;;;;3.40;3.10;;;;;;;14.38;100.00;155054.75;5005799;28;20459;-76
2023/05/06 01:43:02;;;;;;;4.40;4.00;;;;;;;14.36;100.00;155049.59;4995460;28;20462;-76
2023/05/06 01:45:31;;;;;;;3.73;3.03;;;;;;;14.32;100.00;155039.16;4978002;28;20489;-76
2023/05/06 01:47:57;;;;;;;3.93;3.00;;;;;;;14.29;100.00;155031.38;4997986;28;20464;-77
2023/05/06 01:50:24;;;;;;;3.90;3.60;;;;;;;14.25;100.00;155019.66;4982830;28;20448;-77
2023/05/06 01:52:57;;;;;;;4.30;2.93;;;;;;;14.21;100.00;155009.28;4993950;28;21011;-77
2023/05/06 01:55:23;;;;;;;3.00;2.70;;;;;;;14.26;100.00;155022.25;4977415;28;20459;-78
2023/05/06 01:57:51;;;;;;;4.60;4.20;;;;;;;14.31;100.00;155036.59;4969943;28;20494;-78
2023/05/06 02:00:18;;;;;;;3.40;3.10;;;;;;;14.31;100.00;155035.25;4984988;28;21114;-78
2023/05/06 02:02:46;;;;;;;3.87;2.90;;;;;;;14.27;100.00;155024.88;5004934;28;20474;-77
2023/05/06 02:05:13;;;;;;;4.00;3.70;;;;;;;14.27;100.00;155024.88;4986460;28;20513;-78
2023/05/06 02:07:44;;;;;;;3.40;3.07;;;;;;;14.27;100.00;155026.13;4966145;28;20463;-77
2023/05/06 02:10:11;;;;;;;4.17;3.77;;;;;;;14.27;100.00;155024.88;4992889;28;20545;-76
2023/05/06 02:12:40;;;;;;;3.63;2.90;;;;;;;14.26;100.00;155022.25;4975476;28;20565;-77
2023/05/06 02:15:10;;;;;;;3.23;2.80;;;;;;;14.25;100.00;155019.66;4993715;28;20469;-77
2023/05/06 02:17:37;;;;;;;4.30;3.30;;;;;;;14.18;100.00;155002.78;4983060;28;21001;-77
2023/05/06 02:20:05;;;;;;;4.03;3.63;;;;;;;14.20;100.00;155007.97;5011415;28;20477;-77
2023/05/06 02:22:32;;;;;;;3.93;3.50;;;;;;;14.23;100.00;155014.47;4975689;28;20489;-77
2023/05/06 02:24:58;;;;;;;5.40;3.47;;;;;;;14.19;100.00;155005.34;4983830;28;20461;-78
2023/05/06 02:27:25;;;;;;;3.70;3.40;;;;;;;14.16;100.00;154997.59;4968976;28;20477;-77
2023/05/06 02:29:51;;;;;;;3.63;3.33;;;;;;;14.16;100.00;154997.59;4975056;28;20553;-77
2023/05/06 02:32:19;;;;;;;3.80;3.50;;;;;;;14.13;100.00;154989.81;5008574;28;20555;-78
2023/05/06 02:34:46;;;;;;;5.20;4.23;;;;;;;14.13;100.00;154988.50;4986509;28;20458;-77
2023/05/06 02:37:13;;;;;;;4.60;3.90;;;;;;;14.14;100.00;154992.38;4985009;28;20458;-78
2023/05/06 02:39:39;;;;;;;5.07;4.57;;;;;;;14.11;100.00;154983.31;4995835;28;20969;-77
2023/05/06 02:42:06;;;;;;;5.17;4.67;;;;;;;14.11;100.00;154984.59;4985054;28;20454;-77
2023/05/06 02:44:33;;;;;;;5.40;4.90;;;;;;;14.07;100.00;154974.22;4967551;28;20458;-77
2023/05/06 02:46:59;;;;;;;7.50;5.50;;;;;;;14.10;100.00;154980.72;4954513;28;21001;-77
2023/05/06 02:49:27;;;;;;;4.83;4.33;;;;;;;14.08;100.00;154976.84;5000337;28;20465;-77
2023/05/06 02:51:54;;;;;;;6.60;3.87;;;;;;;14.08;100.00;154976.84;4983899;28;20498;-77
2023/05/06 02:54:20;;;;;;;4.27;3.87;;;;;;;14.03;100.00;154965.13;4988651;28;20463;-77
2023/05/06 02:56:47;;;;;;;5.40;4.60;;;;;;;14.06;100.00;154970.34;4993310;28;20477;-77
2023/05/06 02:59:13;;;;;;;5.70;4.47;;;;;;;14.04;100.00;154966.41;4990829;28;20604;-77
2023/05/06 03:01:40;;;;;;;5.40;4.90;;;;;;;14.06;100.00;154971.59;4996435;28;20529;-78
2023/05/06 03:04:06;;;;;;;4.80;4.40;;;;;;;14.02;100.00;154961.25;4959155;28;20462;-78
2023/05/06 03:06:34;;;;;;;5.33;4.80;;;;;;;13.98;100.00;154950.81;5011356;28;20458;-77
2023/05/06 03:09:01;;;;;;;5.87;4.17;;;;;;;13.95;100.00;154944.34;4974384;28;20456;-77
2023/05/06 03:11:30;;;;;;;5.00;4.60;;;;;;;13.92;100.00;154935.28;4984216;28;20521;-77
2023/05/06 03:13:57;;;;;;;7.00;4.00;;;;;;;13.90;100.00;154930.06;4968426;28;20555;-78
2023/05/06 03:16:24;;;;;;;6.57;4.87;;;;;;;13.84;100.00;154914.50;4987427;28;20481;-77
2023/05/06 03:18:53;;;;;;;4.40;3.87;;;;;;;13.84;100.00;154914.50;4992229;28;20451;-77
2023/05/06 03:21:20;;;;;;;4.77;4.27;;;;;;;13.79;100.00;154902.78;4982102;28;20450;-77
2023/05/06 03:23:50;;;;;;;5.17;4.20;;;;;;;13.79;100.00;154902.78;4966243;28;20454;-77
2023/05/06 03:26:18;;;;;;;7.03;5.27;;;;;;;13.76;100.00;154893.75;4980452;28;20533;-78
2023/05/06 03:28:45;;;;;;;4.60;4.07;;;;;;;13.68;100.00;154872.97;4985501;28;20525;-78
2023/05/06 03:31:13;;;;;;;5.10;4.60;;;;;;;13.66;100.00;154869.06;4974146;28;20488;-78
2023/05/06 03:33:40;;;;;;;5.30;4.80;;;;;;;13.59;100.00;154849.59;4976633;28;20561;-78
2023/05/06 03:36:08;;;;;;;5.70;5.13;;;;;;;13.56;100.00;154841.78;4971634;28;20456;-77
2023/05/06 03:38:36;;;;;;;5.80;4.50;;;;;;;13.52;100.00;154832.75;5001437;28;20449;-77
2023/05/06 03:41:08;;;;;;;4.77;4.30;;;;;;;13.53;100.00;154834.06;4969925;28;20556;-78
2023/05/06 03:43:35;;;;;;;5.70;5.17;;;;;;;13.52;100.00;154831.44;4987967;28;20443;-77
2023/05/06 03:46:03;;;;;;;6.23;4.53;;;;;;;13.50;100.00;154826.25;4956668;28;20447;-77
2023/05/06 03:48:32;;;;;;;4.67;4.17;;;;;;;13.50;100.00;154826.25;4962195;28;20449;-78
2023/05/06 03:50:59;;;;;;;5.33;4.83;;;;;;;13.46;100.00;154815.84;4985371;28;20510;-77
2023/05/06 03:53:26;;;;;;;5.00;4.50;;;;;;;13.43;100.00;154810.66;4988485;28;20442;-78
2023/05/06 03:55:52;;;;;;;5.77;4.90;;;;;;;13.45;100.00;154813.28;4991112;28;20501;-78
2023/05/06 03:58:21;;;;;;;5.03;4.57;;;;;;;13.40;100.00;154801.56;5015406;28;20500;-78
2023/05/06 04:00:48;;;;;;;5.43;4.93;;;;;;;13.38;100.00;154797.69;4966500;28;20454;-78
2023/05/06 04:03:14;;;;;;;4.90;4.40;;;;;;;13.32;100.00;154782.13;4995908;28;20463;-78
2023/05/06 04:05:45;;;;;;;4.80;4.40;;;;;;;13.28;100.00;154771.75;4988245;28;20447;-78
2023/05/06 04:08:15;;;;;;;5.47;4.10;;;;;;;13.28;100.00;154771.75;4975732;28;20826;-78
2023/05/06 04:10:42;;;;;;;4.63;4.07;;;;;;;13.26;100.00;154766.53;4992968;28;20572;-86
2023/05/06 04:13:17;;;;;;;5.27;4.17;;;;;;;13.24;100.00;154761.34;4972806;28;20463;-85
2023/05/06 04:15:46;;;;;;;4.77;4.10;;;;;;;13.22;100.00;154754.88;4971466;28;20482;-86
2023/05/06 04:18:18;;;;;;;5.77;4.50;;;;;;;13.19;100.00;154748.38;5005554;28;20446;-86
2023/05/06 04:20:51;;;;;;;5.00;4.47;;;;;;;13.20;100.00;154749.69;4985852;28;20822;-85
2023/05/06 04:23:18;;;;;;;5.40;4.90;;;;;;;13.24;100.00;154760.03;5002418;28;21008;-85
2023/05/06 04:25:47;;;;;;;4.70;4.20;;;;;;;13.24;100.00;154761.34;4955580;28;20458;-86
2023/05/06 04:28:16;;;;;;;8.10;4.43;;;;;;;13.27;100.00;154767.84;4985733;28;20492;-85
2023/05/06 04:30:43;;;;;;;5.27;4.77;;;;;;;13.24;100.00;154761.34;4998095;28;20830;-85
2023/05/06 04:33:12;;;;;;;4.60;4.13;;;;;;;13.23;100.00;154758.78;4977040;28;20477;-85
2023/05/06 04:35:39;;;;;;;7.37;4.80;;;;;;;13.19;100.00;154748.38;4998019;28;20541;-85
2023/05/06 04:38:06;;;;;;;5.57;4.77;;;;;;;13.19;100.00;154747.06;5004031;28;20467;-85
2023/05/06 04:40:35;;;;;;;5.13;4.60;;;;;;;13.16;100.00;154740.59;4997909;28;20454;-85
2023/05/06 04:43:03;;;;;;;5.40;4.70;;;;;;;13.20;100.00;154751.00;4969809;28;20458;-85
2023/05/06 04:45:33;;;;;;;6.07;4.47;;;;;;;13.25;100.00;154763.97;4974020;28;20463;-86
2023/05/06 04:48:00;;;;;;;6.30;4.87;;;;;;;13.27;100.00;154767.84;4954798;28;20461;-85
2023/05/06 04:50:28;;;;;;;5.60;4.67;;;;;;;13.26;100.00;154765.28;4975818;28;20457;-85
2023/05/06 04:52:54;;;;;;;6.40;5.10;;;;;;;13.33;100.00;154784.72;4986171;28;20585;-86
2023/05/06 04:55:22;;;;;;;5.10;4.60;;;;;;;13.43;100.00;154810.66;4971900;28;20742;-88
2023/05/06 04:57:51;;;;;;;6.63;5.57;;;;;;;13.50;100.00;154826.25;4984532;28;20802;-85
2023/05/06 05:00:18;;;;;;;5.00;4.50;;;;;;;13.55;100.00;154839.22;4984961;28;20458;-86
2023/05/06 05:02:46;;;;;;;8.47;4.80;;;;;;;13.62;100.00;154857.38;4969253;28;20465;-86
2023/05/06 05:05:37;;;;;;;7.83;5.10;;;;;;;13.85;100.00;154917.06;4980886;23;20909;-77
2023/05/06 05:12:02;;;;;;;5.60;5.10;;;;;;;14.40;100.00;155059.94;4985454;26;20517;-84
2023/05/06 05:14:35;;;;;;;5.93;5.33;;;;;;;14.54;100.00;155096.31;4991178;28;20453;-85
2023/05/06 05:17:04;;;;;;;6.50;5.37;;;;;;;14.69;100.00;155132.72;4977336;28;20477;-84
2023/05/06 05:19:33;;;;;;;7.07;5.83;;;;;;;14.74;100.00;155145.69;4962556;28;20481;-86
2023/05/06 05:22:02;;;;;;;5.70;5.10;;;;;;;14.73;100.00;155143.09;4982031;28;20459;-87
2023/05/06 05:24:33;;;;;;;7.17;4.77;;;;;;;14.79;100.00;155158.69;4955094;28;20550;-85
2023/05/06 05:27:01;;;;;;;8.80;5.00;;;;;;;14.91;100.00;155189.84;4965286;28;20569;-85
2023/05/06 05:29:30;;;;;;;5.93;5.33;;;;;;;15.13;100.00;155247.03;4958276;28;20474;-85
2023/05/06 05:31:58;;;;;;;7.13;5.67;;;;;;;15.36;100.00;155306.78;4972850;28;20909;-86
2023/05/06 05:34:40;;;;;;;5.50;4.87;;;;;;;15.62;100.00;155373.16;4971528;28;20473;-85
2023/05/06 05:40:39;;;;;;;4.90;4.50;;;;;;;16.08;100.00;155492.75;4970474;28;20601;-85
2023/05/06 05:43:08;;;;;;;4.80;4.30;;;;;;;16.17;100.00;155514.88;4973600;28;20460;-87
2023/05/06 05:45:39;;;;;;;6.87;5.30;;;;;;;16.23;100.00;155530.47;4972793;28;20820;-86
2023/05/06 05:48:10;;;;;;;5.33;4.80;;;;;;;16.30;100.00;155548.66;4973404;28;20500;-86
2023/05/06 05:50:38;;;;;;;5.33;4.80;;;;;;;16.40;100.00;155574.66;4972497;28;20472;-87
2023/05/06 05:53:08;;;;;;;4.97;4.47;;;;;;;16.40;100.00;155574.66;4969075;28;20482;-87
2023/05/06 05:55:37;;;;;;;5.07;4.57;;;;;;;16.53;100.00;155608.53;4971442;28;20470;-87
2023/05/06 05:58:06;;;;;;;5.87;4.90;;;;;;;16.65;100.00;155639.78;4985882;28;20476;-87
2023/05/06 06:00:34;;;;;;;7.40;4.90;;;;;;;16.72;100.00;155657.97;4955251;28;20469;-86
2023/05/06 06:06:02;;;;;;;5.77;4.50;;;;;;;17.05;98.32;155743.81;4963883;28;20812;-87
2023/05/06 06:11:11;;;;;;;4.63;4.23;;;;;;;17.38;100.00;155827.13;4946233;28;20570;-86
2023/05/06 06:13:40;;;;;;;3.63;3.13;;;;;;;17.45;97.39;155845.34;4931559;29;20479;-86
2023/05/06 06:16:08;;;;;;;4.63;4.03;;;;;;;17.53;94.81;155867.53;4915553;29;20950;-86
2023/05/06 06:18:34;;;;;;;3.97;3.27;;;;;;;17.70;95.70;155909.19;4932340;29;20462;-86
2023/05/06 06:21:01;;;;;;;3.40;3.07;;;;;;;17.82;93.38;155941.72;4942370;28;20463;-87
2023/05/06 06:23:27;;;;;;;3.63;3.20;;;;;;;18.05;95.38;156000.34;4949874;28;20458;-87
2023/05/06 06:25:54;;;;;;;3.60;2.90;;;;;;;18.22;95.68;156045.91;4928141;29;20455;-87
2023/05/06 06:28:22;;;;;;;3.37;2.30;;;;;;;18.22;86.47;156045.91;4958997;28;20447;-87
2023/05/06 06:30:48;;;;;;;3.07;2.10;;;;;;;18.16;82.81;156029.00;4931487;29;20471;-87
2023/05/06 06:33:15;;;;;;;2.80;1.90;;;;;;;18.01;84.79;155989.88;4933985;29;20494;-87
2023/05/06 06:35:41;;;;;;;2.83;2.30;;;;;;;17.74;84.63;155919.63;4928248;29;20471;-87
2023/05/06 06:38:08;;;;;;;4.10;2.77;;;;;;;17.61;85.80;155887.03;4935571;28;20490;-87
2023/05/06 06:40:34;;;;;;;3.10;1.97;;;;;;;17.63;85.98;155893.53;4934501;28;20826;-87
2023/05/06 06:43:01;;;;;;;2.80;2.30;;;;;;;17.79;85.85;155933.91;4959230;28;20449;-87
2023/05/06 06:45:51;;;;;;;3.20;2.10;;;;;;;17.94;87.21;155971.69;4941674;28;20454;-87
2023/05/06 06:48:18;;;;;;;4.03;2.90;;;;;;;18.16;91.13;156030.25;4921645;29;20482;-87
2023/05/06 06:50:45;;;;;;;3.50;2.60;;;;;;;18.32;88.08;156069.38;4922371;29;20456;-87
2023/05/06 06:53:12;;;;;;;2.97;2.67;;;;;;;18.20;83.49;156040.69;4910849;29;20472;-87
2023/05/06 06:55:38;;;;;;;3.13;2.37;;;;;;;18.08;88.15;156009.41;4932685;29;20478;-87
2023/05/06 06:58:05;;;;;;;3.93;2.73;;;;;;;17.96;91.26;155978.19;4954600;29;20494;-86
2023/05/06 07:00:31;;;;;;;3.77;3.07;;;;;;;17.83;85.34;155943.03;4936200;28;20553;-88
2023/05/06 07:02:59;;;;;;;5.00;2.70;;;;;;;17.77;93.08;155927.38;4938587;29;20451;-87
2023/05/06 07:05:26;;;;;;;3.80;2.60;;;;;;;17.63;87.96;155892.28;4951556;29;20723;-87
2023/05/06 07:07:53;;;;;;;4.37;2.80;;;;;;;17.63;84.62;155892.28;4937161;29;20500;-87
2023/05/06 07:10:19;;;;;;;2.53;2.33;;;;;;;17.54;85.26;155870.16;4935832;29;20475;-87
2023/05/06 07:12:46;;;;;;;4.67;2.27;;;;;;;17.42;85.58;155837.56;4936825;29;20487;-87
2023/05/06 07:15:12;;;;;;;2.60;2.30;;;;;;;17.23;86.82;155788.09;4941987;29;20481;-87
2023/05/06 07:17:39;;;;;;;2.70;2.10;;;;;;;17.14;86.70;155765.97;4929114;28;20983;-87
2023/05/06 07:20:09;;;;;;;7.43;3.30;;;;;;;17.10;85.99;155755.56;4947668;28;20819;-87
2023/05/06 07:22:35;;;;;;;2.20;2.00;;;;;;;17.06;87.46;155745.13;4934187;28;20465;-87
2023/05/06 07:25:02;;;;;;;3.20;2.37;;;;;;;16.94;87.80;155715.19;4920474;29;20454;-87
2023/05/06 07:27:29;;;;;;;4.00;2.30;;;;;;;16.99;89.42;155726.94;4936575;29;20443;-88
2023/05/06 07:29:56;;;;;;;2.80;1.93;;;;;;;17.12;92.46;155760.78;4935076;29;20688;-88
2023/05/06 07:32:22;;;;;;;3.30;1.60;;;;;;;17.35;85.18;155819.31;4942141;28;20502;-88
2023/05/06 07:34:49;;;;;;;2.43;1.80;;;;;;;17.60;88.62;155884.47;4935169;29;20471;-87
2023/05/06 07:37:17;;;;;;;2.47;2.07;;;;;;;17.88;87.99;155957.34;4935796;29;20444;-88
2023/05/06 07:39:43;;;;;;;2.60;2.23;;;;;;;18.22;88.01;156045.91;4932005;29;20455;-87
2023/05/06 07:42:11;;;;;;;5.17;4.17;;;;;;;18.45;84.97;156103.22;4929965;28;20508;-87
2023/05/06 07:44:38;;;;;;;6.33;4.70;;;;;;;18.21;83.71;156043.28;4956415;28;20554;-88
2023/05/06 07:47:07;;;;;;;5.17;4.17;;;;;;;17.84;85.67;155945.66;4932855;29;20575;-88
2023/05/06 07:49:34;;;;;;;4.50;4.00;;;;;;;17.62;87.28;155889.66;4934845;29;20455;-88
2023/05/06 07:52:02;;;;;;;5.87;3.90;;;;;;;17.58;87.27;155879.22;4933749;28;20984;-88
2023/05/06 07:54:30;;;;;;;3.73;2.90;;;;;;;17.52;87.61;155863.59;4940669;29;20527;-88
2023/05/06 07:56:57;;;;;;;5.60;3.53;;;;;;;17.62;86.74;155889.66;4924242;29;20851;-88
2023/05/06 07:59:23;;;;;;;4.10;3.70;;;;;;;17.61;85.21;155887.03;4934397;29;20455;-88
2023/05/06 08:01:50;;;;;;;3.63;3.23;;;;;;;17.79;86.92;155932.63;4951360;28;20932;-87
2023/05/06 08:04:16;;;;;;;4.90;3.30;;;;;;;18.07;86.28;156005.53;4938289;28;20829;-88
2023/05/06 08:06:43;;;;;;;3.30;2.70;;;;;;;18.20;82.19;156039.38;4934008;28;20450;-88
2023/05/06 08:09:11;;;;;;;3.20;2.63;;;;;;;18.27;81.90;156057.59;4927373;28;20517;-87
2023/05/06 08:11:39;;;;;;;3.57;2.90;;;;;;;18.32;81.41;156070.63;4944851;29;21187;-87
2023/05/06 08:14:05;;;;;;;3.90;3.00;;;;;;;18.25;81.70;156052.41;4962681;28;20657;-88
2023/05/06 08:16:32;;;;;;;3.10;2.70;;;;;;;18.09;80.98;156012.03;4948667;28;20455;-88
2023/05/06 08:18:59;;;;;;;4.97;2.90;;;;;;;18.02;83.52;155993.81;4931797;28;20463;-89
2023/05/06 08:21:25;;;;;;;3.87;2.90;;;;;;;18.13;83.59;156022.50;4963754;28;20525;-89
2023/05/06 08:23:52;;;;;;;5.20;3.30;;;;;;;18.05;80.95;156001.66;4972329;28;20482;-89
2023/05/06 08:26:19;;;;;;;3.67;2.87;;;;;;;17.77;82.56;155928.69;4960057;28;20459;-88
2023/05/06 08:28:47;;;;;;;3.50;3.20;;;;;;;17.68;84.50;155905.28;4952913;28;20462;-88
2023/05/06 08:31:13;;;;;;;3.90;2.80;;;;;;;17.43;82.81;155840.13;4952856;28;20450;-88
2023/05/06 08:33:40;;;;;;;4.00;3.30;;;;;;;17.34;86.21;155818.00;4933670;28;20519;-88
2023/05/06 08:36:07;;;;;;;3.23;2.80;;;;;;;17.21;83.13;155784.16;4930696;28;20455;-89
2023/05/06 08:38:34;;;;;;;3.60;3.00;;;;;;;17.54;86.57;155868.84;4969739;28;20459;-90
2023/05/06 08:41:04;;;;;;;3.77;3.13;;;;;;;17.88;82.43;155956.03;4938057;28;20462;-89
2023/05/06 08:43:32;;;;;;;3.40;2.83;;;;;;;18.04;81.06;155999.03;4970329;28;20447;-89
2023/05/06 08:46:00;;;;;;;3.73;2.23;;;;;;;18.21;80.32;156042.00;4955380;28;20457;-90
2023/05/06 08:48:27;;;;;;;1.97;1.73;;;;;;;18.57;79.10;156135.84;4967718;28;20471;-89
2023/05/06 08:50:54;;;;;;;3.33;1.80;;;;;;;19.03;76.21;156253.09;4968944;28;20468;-88
2023/05/06 08:53:21;;;;;;;2.10;1.90;;;;;;;19.48;73.59;156369.13;4964985;28;20569;-89
2023/05/06 08:55:49;;;;;;;2.90;2.50;;;;;;;19.38;73.54;156344.34;4953609;28;20515;-89
2023/05/06 08:58:16;;;;;;;2.50;2.20;;;;;;;19.01;73.28;156249.16;4969522;28;20462;-89
2023/05/06 09:00:43;;;;;;;2.70;2.50;;;;;;;18.76;76.00;156184.03;4967617;28;20557;-89
2023/05/06 09:03:11;;;;;;;3.07;2.63;;;;;;;18.80;78.77;156194.44;4955690;28;20485;-90
2023/05/06 09:05:37;;;;;;;3.03;2.23;;;;;;;18.64;74.31;156152.75;4954781;28;20454;-90
2023/05/06 09:08:05;;;;;;;2.30;2.10;;;;;;;18.51;78.55;156118.88;4959583;28;20469;-89
2023/05/06 09:10:32;;;;;;;2.30;2.10;;;;;;;18.55;76.31;156129.31;4952733;28;20494;-89
2023/05/06 09:12:59;;;;;;;2.20;1.77;;;;;;;18.60;74.91;156143.66;4955992;28;20476;-90
2023/05/06 09:15:26;;;;;;;2.67;1.80;;;;;;;18.68;74.32;156163.19;4951199;29;20466;-90
2023/05/06 09:17:54;;;;;;;2.60;2.17;;;;;;;18.75;74.41;156181.41;4946446;29;20473;-91
2023/05/06 09:20:22;;;;;;;2.53;1.90;;;;;;;18.74;73.03;156178.84;4971588;28;20824;-90
2023/05/06 09:22:49;;;;;;;2.47;1.70;;;;;;;18.87;73.21;156212.72;4953744;28;20455;-89
2023/05/06 09:25:16;;;;;;;2.27;2.07;;;;;;;19.04;73.32;156256.97;4948255;28;20565;-89
2023/05/06 09:27:42;;;;;;;3.33;2.07;;;;;;;19.31;72.08;156327.38;4973782;28;20466;-90
2023/05/06 09:30:11;;;;;;;2.90;2.13;;;;;;;19.53;73.10;156382.16;4943604;29;20467;-89
2023/05/06 09:32:38;;;;;;;3.07;1.77;;;;;;;19.69;69.83;156423.88;4918839;29;20486;-90
2023/05/06 09:35:05;;;;;;;2.67;1.80;;;;;;;19.77;71.95;156444.75;4949096;28;20463;-90
2023/05/06 09:37:33;;;;;;;2.00;1.80;;;;;;;19.78;69.05;156448.63;4952562;28;20461;-91
2023/05/06 09:40:00;;;;;;;2.17;1.93;;;;;;;19.74;69.13;156438.22;4953374;28;20458;-91
2023/05/06 09:42:28;;;;;;;2.50;1.93;;;;;;;19.44;69.20;156361.31;4953535;28;20941;-91
2023/05/06 09:44:55;;;;;;;2.97;1.90;;;;;;;19.37;69.63;156343.06;4955431;28;20481;-90
2023/05/06 09:47:22;;;;;;;2.67;2.13;;;;;;;19.36;70.90;156340.41;4950285;28;20459;-91
2023/05/06 09:49:49;;;;;;;4.80;2.37;;;;;;;19.07;69.42;156263.50;4957046;28;20462;-91
2023/05/06 09:52:16;;;;;;;2.07;1.67;;;;;;;18.95;69.28;156233.56;4943367;28;20459;-91
2023/05/06 09:54:45;;;;;;;2.30;1.80;;;;;;;18.99;70.61;156242.66;4963796;28;20525;-90
2023/05/06 09:57:14;;;;;;;1.90;1.70;;;;;;;18.98;70.13;156241.38;4938468;28;20465;-90
2023/05/06 09:59:41;;;;;;;2.10;1.90;;;;;;;19.03;68.95;156254.41;4944874;29;20483;-91
2023/05/06 10:02:08;;;;;;;2.40;1.90;;;;;;;18.93;74.04;156228.31;4960004;28;20783;-91
2023/05/06 10:04:36;;;;;;;2.77;2.10;;;;;;;19.07;72.46;156264.81;4938814;28;20822;-91
2023/05/06 10:07:03;;;;;;;2.30;2.07;;;;;;;19.25;78.27;156311.72;4949482;28;20463;-91
2023/05/06 10:09:30;;;;;;;2.90;1.93;;;;;;;19.37;70.97;156341.72;4938274;28;20911;-91
2023/05/06 10:11:59;;;;;;;2.90;2.17;;;;;;;19.44;68.90;156361.31;4937921;28;20463;-90
2023/05/06 10:14:25;;;;;;;3.93;2.10;;;;;;;19.38;67.92;156345.66;4938431;28;20483;-91
2023/05/06 10:16:52;;;;;;;3.93;2.00;;;;;;;19.49;67.80;156371.72;4954061;28;20453;-90
2023/05/06 10:19:23;;;;;;;6.73;2.23;;;;;;;19.34;69.73;156335.19;4934243;28;20862;-91
2023/05/06 10:21:54;;;;;;;2.10;1.90;;;;;;;19.33;69.80;156332.56;4934484;29;20467;-90
2023/05/06 10:24:23;;;;;;;2.90;2.60;;;;;;;19.26;68.31;156314.34;4936906;29;20458;-91
2023/05/06 10:26:51;;;;;;;3.27;2.17;;;;;;;19.14;70.33;156283.03;4938913;28;20456;-91
2023/05/06 10:29:19;;;;;;;4.70;2.67;;;;;;;19.43;69.63;156357.41;4939169;28;20458;-90
2023/05/06 10:31:49;;;;;;;2.40;2.20;;;;;;;19.35;68.33;156337.78;4944877;28;20523;-78
2023/05/06 10:34:16;;;;;;;4.13;2.70;;;;;;;19.32;67.63;156330.00;4960347;28;20478;-77
2023/05/06 10:36:43;;;;;;;2.67;2.00;;;;;;;19.29;69.75;156320.84;4973663;28;20450;-77
2023/05/06 10:39:12;;;;;;;4.23;2.20;;;;;;;19.19;68.31;156296.13;4953802;28;20466;-78
2023/05/06 10:41:39;;;;;;;2.43;2.20;;;;;;;19.15;68.59;156284.34;4960701;28;20452;-77
2023/05/06 10:44:06;;;;;;;5.93;2.80;;;;;;;19.19;68.38;156294.81;4960761;28;20807;-78
2023/05/06 10:46:57;;;;;;;1.90;1.70;;;;;;;19.23;66.29;156306.53;4975438;28;20471;-78
2023/05/06 10:49:24;;;;;;;1.80;1.70;;;;;;;19.16;65.36;156286.97;4971479;28;20931;-77
2023/05/06 10:52:11;;;;;;;1.77;1.67;;;;;;;19.32;68.18;156330.00;4961296;28;20486;-77
2023/05/06 10:54:48;;;;;;;2.30;1.90;;;;;;;19.51;67.85;156378.28;4954313;28;20593;-78
2023/05/06 10:57:14;;;;;;;2.83;2.30;;;;;;;19.58;65.87;156395.19;4948178;28;20457;-78
2023/05/06 10:59:46;;;;;;;2.63;2.00;;;;;;;19.54;66.50;156386.06;4952095;28;20472;-78
2023/05/06 11:02:17;;;;;;;3.80;2.50;;;;;;;19.51;63.90;156378.28;4952684;28;20439;-78
2023/05/06 11:04:50;;;;;;;2.80;2.40;;;;;;;19.15;66.67;156284.34;4974509;28;20953;-78
2023/05/06 11:07:22;;;;;;;2.63;2.43;;;;;;;19.09;66.62;156270.00;4942909;28;21041;-77
2023/05/06 11:09:56;;;;;;;2.83;2.63;;;;;;;19.17;67.19;156289.53;4955904;28;20858;-78
2023/05/06 11:12:23;;;;;;;2.67;2.47;;;;;;;19.03;66.28;156254.41;4946562;28;20834;-77
2023/05/06 11:14:50;;;;;;;3.40;2.30;;;;;;;19.02;70.88;156250.47;4967793;28;20548;-78
2023/05/06 11:17:31;;;;;;;3.50;3.20;;;;;;;19.17;67.89;156289.53;4946990;28;20465;-77
2023/05/06 11:20:20;;;;;;;4.43;3.37;;;;;;;19.32;67.70;156328.69;4955347;28;20981;-77
2023/05/06 11:22:47;;;;;;;3.47;3.17;;;;;;;19.28;67.06;156319.53;4949881;28;20944;-77
2023/05/06 11:25:14;;;;;;;3.43;3.13;;;;;;;19.25;67.00;156311.72;4946464;28;20459;-77
2023/05/06 11:27:41;;;;;;;2.93;2.73;;;;;;;19.13;66.53;156280.47;4946648;28;20451;-77
2023/05/06 11:30:13;;;;;;;3.47;2.97;;;;;;;19.13;65.98;156280.47;4967076;28;21048;-77
2023/05/06 11:32:42;;;;;;;3.43;3.13;;;;;;;19.02;66.51;156251.78;4951437;28;20549;-77
2023/05/06 11:35:09;;;;;;;3.70;3.40;;;;;;;19.03;66.89;156253.09;4971555;28;20482;-77
2023/05/06 11:37:36;;;;;;;3.10;2.90;;;;;;;19.12;66.13;156277.84;4964510;28;20457;-77
2023/05/06 11:40:05;;;;;;;2.97;2.67;;;;;;;19.05;67.57;156259.59;4968083;28;20553;-77